createdAt,value
2018-12-31T00:00:47.208Z,101526.25
2018-12-31T00:03:50.498Z,101524.17
2018-12-31T00:06:53.404Z,101527.14
2018-12-31T00:09:57.088Z,101533.86
2018-12-31T00:12:59.985Z,101533.92
2018-12-31T00:16:03.007Z,101530.41
2018-12-31T00:19:06.038Z,101536.97
2018-12-31T00:22:09.335Z,101533.92
2018-12-31T00:25:12.537Z,101534.00
2018-12-31T00:28:15.460Z,101542.27
2018-12-31T00:31:19.030Z,101541.78
2018-12-31T00:34:21.983Z,101542.72
2018-12-31T00:37:25.318Z,101544.52
2018-12-31T00:40:29.342Z,101546.31
2018-12-31T00:43:33.252Z,101550.62
2018-12-31T00:46:36.529Z,101541.98
2018-12-31T00:49:40.151Z,101549.47
2018-12-31T00:52:43.739Z,101558.74
2018-12-31T00:55:46.659Z,101560.58
2018-12-31T00:58:49.842Z,101557.88
2018-12-31T01:01:52.761Z,101551.70
2018-12-31T01:04:55.983Z,101556.09
2018-12-31T01:07:58.896Z,101554.34
2018-12-31T01:11:02.501Z,101561.76
2018-12-31T01:14:05.771Z,101556.12
2018-12-31T01:17:08.690Z,101560.13
2018-12-31T01:20:11.596Z,101556.16
2018-12-31T01:23:14.509Z,101558.78
2018-12-31T01:26:17.723Z,101556.16
2018-12-31T01:29:20.666Z,101555.30
2018-12-31T01:32:23.579Z,101560.05
2018-12-31T01:35:26.496Z,101557.50
2018-12-31T01:38:29.689Z,101556.68
2018-12-31T01:41:32.952Z,101551.83
2018-12-31T01:44:36.280Z,101551.77
2018-12-31T01:47:39.889Z,101553.95
2018-12-31T01:50:55.108Z,101545.20
2018-12-31T01:54:18.152Z,101552.69
2018-12-31T01:57:33.632Z,101547.34
2018-12-31T02:00:49.457Z,101542.05
2018-12-31T02:04:12.144Z,101546.16
2018-12-31T02:07:28.124Z,101557.91
2018-12-31T02:10:44.853Z,101561.46
2018-12-31T02:14:07.244Z,101563.73
2018-12-31T02:17:30.550Z,101566.30
2018-12-31T02:20:46.158Z,101562.30
2018-12-31T02:24:08.516Z,101565.44
2018-12-31T02:27:23.608Z,101563.58
2018-12-31T02:30:45.985Z,101562.73
2018-12-31T02:34:01.236Z,101556.03
2018-12-31T02:37:16.660Z,101562.83
2018-12-31T02:40:39.045Z,101540.36
2018-12-31T02:43:54.269Z,101536.45
2018-12-31T02:47:09.634Z,101537.23
2018-12-31T02:50:32.653Z,101537.23
2018-12-31T02:53:48.644Z,101533.73
2018-12-31T02:57:11.371Z,101538.52
2018-12-31T03:00:27.163Z,101534.18
2018-12-31T03:03:43.296Z,101524.82
2018-12-31T03:07:05.674Z,101544.80
2018-12-31T03:10:21.356Z,101531.09
2018-12-31T03:13:36.968Z,101538.16
2018-12-31T03:16:59.615Z,101532.05
2018-12-31T03:20:15.012Z,101533.85
2018-12-31T03:23:37.758Z,101528.06
2018-12-31T03:26:52.822Z,101524.98
2018-12-31T03:30:15.241Z,101522.36
2018-12-31T03:33:30.783Z,101517.49
2018-12-31T03:36:53.140Z,101515.70
2018-12-31T03:40:08.754Z,101463.00
2018-12-31T03:43:31.424Z,101519.28
2018-12-31T03:46:47.276Z,101524.52
2018-12-31T03:50:09.950Z,101521.40
2018-12-31T03:53:25.723Z,101525.39
2018-12-31T03:56:50.400Z,101525.79
2018-12-31T04:00:25.968Z,101522.33
2018-12-31T04:03:48.746Z,101531.56
2018-12-31T04:07:04.224Z,101528.58
2018-12-31T04:10:26.600Z,101522.80
2018-12-31T04:13:42.468Z,101519.30
2018-12-31T04:17:04.903Z,101527.11
2018-12-31T04:20:20.940Z,101518.42
2018-12-31T04:23:43.568Z,101438.25
2018-12-31T04:26:59.454Z,101522.34
2018-12-31T04:30:16.031Z,101528.47
2018-12-31T04:33:30.992Z,101533.31
2018-12-31T04:36:53.392Z,101526.24
2018-12-31T04:40:08.960Z,101528.07
2018-12-31T04:43:31.323Z,101517.47
2018-12-31T04:46:46.995Z,101437.84
2018-12-31T04:50:09.378Z,101530.66
2018-12-31T04:53:25.344Z,101470.55
2018-12-31T04:56:48.375Z,101534.66
2018-12-31T05:00:04.408Z,101468.67
2018-12-31T05:06:55.498Z,101523.67
2018-12-31T05:10:18.249Z,101518.02
2018-12-31T05:13:35.102Z,101522.30
2018-12-31T05:16:57.463Z,101529.38
2018-12-31T05:20:01.088Z,101474.53
2018-12-31T05:23:23.780Z,101537.27
2018-12-31T05:26:39.529Z,101524.53
2018-12-31T05:29:54.670Z,101518.37
2018-12-31T05:33:10.273Z,101518.42
2018-12-31T05:36:32.958Z,101518.86
2018-12-31T05:39:48.630Z,101528.92
2018-12-31T05:43:11.033Z,101538.22
2018-12-31T05:46:26.390Z,101541.33
2018-12-31T05:49:48.784Z,101477.71
2018-12-31T05:53:04.904Z,101504.30
2018-12-31T05:56:27.279Z,101530.00
2018-12-31T05:59:42.952Z,101535.30
2018-12-31T06:03:05.378Z,101538.29
2018-12-31T06:06:20.980Z,101480.02
2018-12-31T06:09:43.355Z,101536.63
2018-12-31T06:12:58.817Z,101523.43
2018-12-31T06:16:21.523Z,101528.28
2018-12-31T06:19:37.570Z,101529.63
2018-12-31T06:22:59.951Z,101531.78
2018-12-31T06:26:15.251Z,101536.70
2018-12-31T06:29:28.722Z,101543.73
2018-12-31T06:32:45.562Z,101542.86
2018-12-31T06:36:08.234Z,101548.98
2018-12-31T06:39:24.325Z,101553.41
2018-12-31T06:42:47.012Z,101545.95
2018-12-31T06:46:02.712Z,101549.88
2018-12-31T06:49:26.156Z,101533.09
2018-12-31T06:52:41.220Z,101559.15
2018-12-31T06:56:03.617Z,101565.29
2018-12-31T06:59:18.672Z,101569.28
2018-12-31T07:02:41.041Z,101556.50
2018-12-31T07:05:56.449Z,101517.98
2018-12-31T07:09:19.454Z,101577.66
2018-12-31T07:12:34.944Z,101574.62
2018-12-31T07:15:57.402Z,101536.16
2018-12-31T07:19:12.691Z,101540.95
2018-12-31T07:22:35.089Z,101585.11
2018-12-31T07:25:51.205Z,101589.56
2018-12-31T07:29:07.330Z,101593.95
2018-12-31T07:32:23.140Z,101517.55
2018-12-31T07:35:38.768Z,101592.67
2018-12-31T07:39:01.405Z,101600.16
2018-12-31T07:42:18.550Z,101590.08
2018-12-31T07:45:40.931Z,101597.05
2018-12-31T07:48:56.400Z,101510.41
2018-12-31T07:52:12.423Z,101601.89
2018-12-31T07:55:35.238Z,101608.94
2018-12-31T07:58:50.799Z,101612.09
2018-12-31T08:02:13.558Z,101613.35
2018-12-31T08:05:29.462Z,101613.39
2018-12-31T08:08:51.828Z,101612.52
2018-12-31T08:12:08.277Z,101616.91
2018-12-31T08:15:30.673Z,101618.67
2018-12-31T08:18:46.337Z,101613.82
2018-12-31T08:22:01.879Z,101614.67
2018-12-31T08:25:24.241Z,101620.90
2018-12-31T08:28:40.415Z,101623.13
2018-12-31T08:32:02.846Z,101627.50
2018-12-31T08:35:18.546Z,101627.95
2018-12-31T08:38:33.577Z,101627.93
2018-12-31T08:45:32.089Z,101636.75
2018-12-31T08:48:47.220Z,101631.55
2018-12-31T08:52:09.631Z,101612.44
2018-12-31T08:55:24.822Z,101637.76
2018-12-31T08:58:40.495Z,101631.00
2018-12-31T09:02:03.230Z,101642.98
2018-12-31T09:05:18.687Z,101640.36
2018-12-31T09:08:41.400Z,101640.33
2018-12-31T09:11:57.117Z,101649.17
2018-12-31T09:15:12.523Z,101647.80
2018-12-31T09:18:34.909Z,101644.29
2018-12-31T09:21:50.090Z,101628.45
2018-12-31T09:25:05.289Z,101643.53
2018-12-31T09:28:20.568Z,101644.34
2018-12-31T09:31:43.322Z,101641.31
2018-12-31T09:34:58.369Z,101641.75
2018-12-31T09:38:20.765Z,101647.92
2018-12-31T09:41:36.218Z,101636.95
2018-12-31T09:44:58.626Z,101636.06
2018-12-31T09:48:13.714Z,101642.28
2018-12-31T09:51:36.127Z,101642.19
2018-12-31T09:54:51.529Z,101647.52
2018-12-31T09:58:13.897Z,101649.34
2018-12-31T10:01:29.457Z,101649.00
2018-12-31T10:04:51.830Z,101654.78
2018-12-31T10:08:07.578Z,101653.78
2018-12-31T10:11:30.646Z,101660.36
2018-12-31T10:14:46.078Z,101659.55
2018-12-31T10:18:01.259Z,101665.67
2018-12-31T10:21:23.656Z,101599.73
2018-12-31T10:24:39.341Z,101601.50
2018-12-31T10:27:54.831Z,101664.31
2018-12-31T10:31:17.185Z,101666.95
2018-12-31T10:34:35.020Z,101664.30
2018-12-31T10:37:57.812Z,101668.70
2018-12-31T10:41:13.301Z,101668.75
2018-12-31T10:44:29.194Z,101656.83
2018-12-31T10:47:52.293Z,101669.58
2018-12-31T10:51:07.847Z,101670.90
2018-12-31T10:54:23.268Z,101664.30
2018-12-31T10:57:45.781Z,101666.99
2018-12-31T11:01:01.318Z,101666.66
2018-12-31T11:04:16.741Z,101657.42
2018-12-31T11:07:39.190Z,101649.82
2018-12-31T11:10:55.064Z,101662.20
2018-12-31T11:14:11.014Z,101666.18
2018-12-31T11:17:34.784Z,101654.25
2018-12-31T11:20:50.297Z,101653.87
2018-12-31T11:24:05.396Z,101609.20
2018-12-31T11:27:20.684Z,101654.72
2018-12-31T11:34:46.543Z,101655.13
2018-12-31T11:38:08.930Z,101659.98
2018-12-31T11:41:24.509Z,101663.50
2018-12-31T11:44:39.720Z,101651.63
2018-12-31T11:48:02.141Z,101645.42
2018-12-31T11:51:17.533Z,101639.76
2018-12-31T11:54:20.839Z,101642.77
2018-12-31T11:57:24.028Z,101630.09
2018-12-31T12:00:39.080Z,101637.52
2018-12-31T12:04:01.790Z,101633.61
2018-12-31T12:07:17.541Z,101636.63
2018-12-31T12:10:20.808Z,101633.56
2018-12-31T12:13:35.963Z,101632.73
2018-12-31T12:16:58.401Z,101590.80
2018-12-31T12:20:13.675Z,101619.47
2018-12-31T12:23:36.364Z,101603.59
2018-12-31T12:26:51.524Z,101618.63
2018-12-31T12:30:14.418Z,101618.59
2018-12-31T12:33:51.359Z,101614.62
2018-12-31T12:37:13.750Z,101623.34
2018-12-31T12:40:29.086Z,101619.39
2018-12-31T12:43:51.458Z,101626.95
2018-12-31T12:47:08.323Z,101577.91
2018-12-31T12:50:31.274Z,101635.80
2018-12-31T12:53:55.165Z,101636.28
2018-12-31T12:57:17.764Z,101626.08
2018-12-31T13:00:33.554Z,101636.28
2018-12-31T13:03:56.588Z,101648.14
2018-12-31T13:07:12.187Z,101647.00
2018-12-31T13:10:35.016Z,101647.02
2018-12-31T13:13:50.562Z,101647.35
2018-12-31T13:17:12.977Z,101649.94
2018-12-31T13:20:28.204Z,101640.24
2018-12-31T13:23:50.711Z,101634.48
2018-12-31T13:27:06.651Z,101648.17
2018-12-31T13:30:29.374Z,101617.19
2018-12-31T13:33:45.274Z,101645.10
2018-12-31T13:37:07.689Z,101645.14
2018-12-31T13:40:23.698Z,101646.91
2018-12-31T13:43:39.969Z,101641.62
2018-12-31T13:47:02.730Z,101647.34
2018-12-31T13:50:18.244Z,101650.86
2018-12-31T13:53:34.455Z,101646.47
2018-12-31T13:56:56.817Z,101568.52
2018-12-31T14:00:11.891Z,101648.55
2018-12-31T14:03:34.744Z,101649.44
2018-12-31T14:06:50.517Z,101650.30
2018-12-31T14:10:13.699Z,101642.02
2018-12-31T14:13:29.515Z,101645.95
2018-12-31T14:16:51.973Z,101647.78
2018-12-31T14:20:07.797Z,101653.91
2018-12-31T14:23:30.186Z,101653.91
2018-12-31T14:26:45.946Z,101655.69
2018-12-31T14:30:01.541Z,101652.14
2018-12-31T14:33:24.215Z,101660.52
2018-12-31T14:36:39.727Z,101658.34
2018-12-31T14:40:03.239Z,101658.28
2018-12-31T14:43:18.266Z,101630.72
2018-12-31T14:46:34.071Z,101667.95
2018-12-31T14:49:56.829Z,101663.11
2018-12-31T14:53:12.607Z,101671.46
2018-12-31T14:56:27.896Z,101666.58
2018-12-31T14:59:50.277Z,101667.02
2018-12-31T15:03:05.712Z,101674.54
2018-12-31T15:06:20.832Z,101671.40
2018-12-31T15:09:43.191Z,101674.47
2018-12-31T15:13:00.242Z,101673.16
2018-12-31T15:16:22.624Z,101676.31
2018-12-31T15:19:37.704Z,101677.16
2018-12-31T15:22:53.816Z,101640.02
2018-12-31T15:26:16.516Z,101642.21
2018-12-31T15:29:31.900Z,101613.88
2018-12-31T15:32:47.275Z,101691.71
2018-12-31T15:36:09.642Z,101693.93
2018-12-31T15:39:24.878Z,101695.23
2018-12-31T15:42:47.667Z,101680.20
2018-12-31T15:46:03.719Z,101697.89
2018-12-31T15:49:26.106Z,101701.39
2018-12-31T15:52:41.439Z,101702.76
2018-12-31T15:56:03.815Z,101701.44
2018-12-31T15:59:19.015Z,101708.41
2018-12-31T16:02:41.784Z,101704.90
2018-12-31T16:05:57.272Z,101705.26
2018-12-31T16:09:20.695Z,101668.16
2018-12-31T16:12:36.322Z,101704.92
2018-12-31T16:15:52.253Z,101706.66
2018-12-31T16:19:15.249Z,101704.91
2018-12-31T16:22:39.208Z,101705.69
2018-12-31T16:25:55.057Z,101635.23
2018-12-31T16:29:10.187Z,101699.09
2018-12-31T16:32:25.367Z,101712.94
2018-12-31T16:35:47.752Z,101711.05
2018-12-31T16:39:06.039Z,101715.21
2018-12-31T16:42:21.247Z,101644.11
2018-12-31T16:45:43.995Z,101714.87
2018-12-31T16:48:59.366Z,101715.56
2018-12-31T16:52:22.769Z,101708.41
2018-12-31T16:55:37.784Z,101712.84
2018-12-31T16:59:00.161Z,101710.61
2018-12-31T17:02:15.417Z,101715.91
2018-12-31T17:05:38.373Z,101641.97
2018-12-31T17:09:15.925Z,101710.58
2018-12-31T17:12:38.312Z,101707.09
2018-12-31T17:15:53.874Z,101707.84
2018-12-31T17:19:09.365Z,101706.48
2018-12-31T17:22:32.216Z,101710.47
2018-12-31T17:25:47.509Z,101706.02
2018-12-31T17:29:02.980Z,101699.88
2018-12-31T17:32:25.357Z,101701.63
2018-12-31T17:35:40.870Z,101700.72
2018-12-31T17:38:56.245Z,101663.14
2018-12-31T17:42:18.600Z,101696.70
2018-12-31T17:45:34.074Z,101695.05
2018-12-31T17:48:56.755Z,101686.14
2018-12-31T17:52:12.483Z,101694.13
2018-12-31T17:55:27.622Z,101691.48
2018-12-31T17:58:50.226Z,101688.80
2018-12-31T18:02:14.543Z,101687.05
2018-12-31T18:05:37.143Z,101688.83
2018-12-31T18:09:14.420Z,101693.63
2018-12-31T18:12:37.146Z,101695.75
2018-12-31T18:15:52.829Z,101688.33
2018-12-31T18:19:08.812Z,101693.11
2018-12-31T18:22:31.483Z,101693.56
2018-12-31T18:25:55.465Z,101699.23
2018-12-31T18:29:18.241Z,101698.36
2018-12-31T18:32:33.899Z,101697.98
2018-12-31T18:35:56.288Z,101693.94
2018-12-31T18:39:11.840Z,101646.62
2018-12-31T18:42:34.213Z,101690.04
2018-12-31T18:45:49.548Z,101686.88
2018-12-31T18:49:11.932Z,101697.41
2018-12-31T18:52:26.976Z,101694.36
2018-12-31T18:55:42.564Z,101697.48
2018-12-31T18:59:04.950Z,101701.89
2018-12-31T19:02:20.807Z,101642.59
2018-12-31T19:05:36.010Z,101708.78
2018-12-31T19:08:58.394Z,101628.05
2018-12-31T19:12:13.492Z,101723.22
2018-12-31T19:15:36.512Z,101646.12
2018-12-31T19:18:52.648Z,101720.40
2018-12-31T19:22:08.663Z,101729.28
2018-12-31T19:25:23.796Z,101728.41
2018-12-31T19:28:38.990Z,101731.87
2018-12-31T19:31:54.832Z,101738.91
2018-12-31T19:35:17.542Z,101658.68
2018-12-31T19:38:32.996Z,101731.39
2018-12-31T19:41:48.228Z,101730.89
2018-12-31T19:45:10.883Z,101724.75
2018-12-31T19:48:26.869Z,101728.73
2018-12-31T19:51:49.244Z,101723.79
2018-12-31T19:55:06.984Z,101726.41
2018-12-31T19:58:22.485Z,101719.86
2018-12-31T20:01:45.190Z,101714.63
2018-12-31T20:05:01.688Z,101705.27
2018-12-31T20:08:24.064Z,101707.09
2018-12-31T20:11:37.704Z,101700.89
2018-12-31T20:18:16.473Z,101693.84
2018-12-31T20:21:39.170Z,101685.83
2018-12-31T20:24:54.414Z,101690.43
2018-12-31T20:28:16.876Z,101680.19
2018-12-31T20:31:32.521Z,101680.14
2018-12-31T20:38:36.724Z,101671.69
2018-12-31T20:41:59.113Z,101678.80
2018-12-31T20:45:14.645Z,101680.08
2018-12-31T20:48:37.362Z,101663.77
2018-12-31T20:51:52.980Z,101595.66
2018-12-31T20:55:15.388Z,101678.01
2018-12-31T20:58:30.543Z,101667.52
2018-12-31T21:01:53.745Z,101660.83
2018-12-31T21:05:31.208Z,101651.50
2018-12-31T21:08:54.145Z,101658.70
2018-12-31T21:12:09.654Z,101556.86
2018-12-31T21:15:32.355Z,101644.02
2018-12-31T21:18:48.132Z,101650.23
2018-12-31T21:22:03.418Z,101636.98
2018-12-31T21:25:25.803Z,101637.92
2018-12-31T21:28:41.961Z,101631.36
2018-12-31T21:32:04.319Z,101635.73
2018-12-31T21:35:19.612Z,101634.89
2018-12-31T21:38:41.999Z,101629.61
2018-12-31T21:41:59.267Z,101624.77
2018-12-31T21:45:15.435Z,101629.17
2018-12-31T21:48:38.406Z,101571.17
2018-12-31T21:51:54.027Z,101635.27
2018-12-31T21:55:16.763Z,101602.53
2018-12-31T21:58:32.644Z,101626.10
2018-12-31T22:01:47.917Z,101564.53
2018-12-31T22:05:10.643Z,101628.67
2018-12-31T22:08:26.189Z,101641.94
2018-12-31T22:11:41.756Z,101641.12
2018-12-31T22:15:07.345Z,101639.02
2018-12-31T22:18:22.962Z,101631.40
2018-12-31T22:21:38.397Z,101639.36
2018-12-31T22:24:53.857Z,101635.34
2018-12-31T22:28:09.541Z,101645.81
2018-12-31T22:31:32.223Z,101636.58
2018-12-31T22:34:48.381Z,101635.77
2018-12-31T22:38:03.563Z,101627.83
2018-12-31T22:41:25.949Z,101621.65
2018-12-31T22:44:41.467Z,101618.40
2018-12-31T22:47:56.637Z,101565.39
2018-12-31T22:51:19.039Z,101609.99
2018-12-31T22:54:34.142Z,101615.38
2018-12-31T22:57:56.838Z,101611.46
2018-12-31T23:01:12.039Z,101602.13
2018-12-31T23:04:35.092Z,101601.64
2018-12-31T23:07:50.465Z,101592.41
2018-12-31T23:11:12.832Z,101598.59
2018-12-31T23:14:28.647Z,101596.34
2018-12-31T23:17:51.348Z,101584.88
2018-12-31T23:21:06.644Z,101579.64
2018-12-31T23:24:29.362Z,101581.81
2018-12-31T23:27:45.526Z,101504.34
2018-12-31T23:31:09.257Z,101580.10
2018-12-31T23:34:24.801Z,101562.45
2018-12-31T23:37:47.184Z,101565.51
2018-12-31T23:41:02.132Z,101553.64
2018-12-31T23:44:25.860Z,101555.23
2018-12-31T23:47:41.572Z,101546.06
2018-12-31T23:51:04.322Z,101471.73
2018-12-31T23:54:28.096Z,101541.74
2018-12-31T23:57:50.703Z,101547.86
